createdAt,value
2018-09-05T00:00:28.708Z,100177.53
2018-09-05T00:02:58.284Z,100180.47
2018-09-05T00:05:27.200Z,100184.50
2018-09-05T00:07:56.275Z,100187.16
2018-09-05T00:10:25.209Z,100180.31
2018-09-05T00:12:54.152Z,100180.92
2018-09-05T00:15:23.189Z,100181.39
2018-09-05T00:17:52.284Z,100175.52
2018-09-05T00:20:21.278Z,100179.09
2018-09-05T00:22:50.220Z,100171.20
2018-09-05T00:25:19.161Z,100175.52
2018-09-05T00:27:48.113Z,100174.39
2018-09-05T00:30:17.044Z,100178.76
2018-09-05T00:32:45.973Z,100175.34
2018-09-05T00:35:14.902Z,100176.39
2018-09-05T00:37:43.838Z,100178.35
2018-09-05T00:40:12.796Z,100185.93
2018-09-05T00:42:41.902Z,100184.17
2018-09-05T00:45:10.897Z,100184.13
2018-09-05T00:47:40.680Z,100183.56
2018-09-05T00:50:09.617Z,100191.38
2018-09-05T00:52:38.676Z,100187.89
2018-09-05T00:55:07.710Z,100197.78
2018-09-05T00:57:36.635Z,100193.62
2018-09-05T01:00:05.838Z,100194.48
2018-09-05T01:02:34.810Z,100190.50
2018-09-05T01:05:03.806Z,100187.23
2018-09-05T01:07:32.739Z,100190.08
2018-09-05T01:10:01.687Z,100188.58
2018-09-05T01:12:32.253Z,100196.06
2018-09-05T01:15:01.214Z,100195.59
2018-09-05T01:17:30.257Z,100193.13
2018-09-05T01:19:59.221Z,100197.41
2018-09-05T01:22:28.196Z,100200.09
2018-09-05T01:24:57.202Z,100197.06
2018-09-05T01:27:26.134Z,100196.99
2018-09-05T01:29:57.065Z,100199.33
2018-09-05T01:32:26.026Z,100195.27
2018-09-05T01:34:54.968Z,100203.08
2018-09-05T01:37:23.949Z,100202.36
2018-09-05T01:39:52.894Z,100211.13
2018-09-05T01:42:21.861Z,100203.33
2018-09-05T01:44:50.834Z,100208.73
2018-09-05T01:47:19.827Z,100211.06
2018-09-05T01:49:48.835Z,100204.50
2018-09-05T01:52:17.762Z,100206.16
2018-09-05T01:54:46.749Z,100202.66
2018-09-05T01:57:15.742Z,100204.59
2018-09-05T01:59:44.733Z,100205.94
2018-09-05T02:02:14.170Z,100204.16
2018-09-05T02:04:43.108Z,100201.11
2018-09-05T02:07:12.047Z,100204.87
2018-09-05T02:09:40.984Z,100206.03
2018-09-05T02:12:09.941Z,100200.70
2018-09-05T02:14:38.845Z,100201.67
2018-09-05T02:17:07.809Z,100206.66
2018-09-05T02:19:36.772Z,100206.56
2018-09-05T02:22:05.828Z,100213.20
2018-09-05T02:24:34.907Z,100210.56
2018-09-05T02:27:03.875Z,100211.19
2018-09-05T02:29:32.957Z,100210.06
2018-09-05T02:32:02.274Z,100213.39
2018-09-05T02:34:31.225Z,100210.06
2018-09-05T02:37:00.184Z,100214.02
2018-09-05T02:39:29.134Z,100217.08
2018-09-05T02:41:58.145Z,100216.84
2018-09-05T02:47:09.043Z,100217.98
2018-09-05T02:49:38.068Z,100209.41
2018-09-05T02:52:07.081Z,100213.49
2018-09-05T02:54:36.103Z,100217.08
2018-09-05T02:57:05.238Z,100214.11
2018-09-05T02:59:34.188Z,100213.94
2018-09-05T03:02:03.360Z,100209.75
2018-09-05T03:04:32.332Z,100210.13
2018-09-05T03:07:01.302Z,100213.55
2018-09-05T03:09:30.347Z,100213.23
2018-09-05T03:11:59.388Z,100218.52
2018-09-05T03:14:28.332Z,100215.44
2018-09-05T03:16:57.318Z,100223.48
2018-09-05T03:19:26.272Z,100225.70
2018-09-05T03:21:55.414Z,100220.16
2018-09-05T03:24:24.340Z,100224.56
2018-09-05T03:26:53.918Z,100222.22
2018-09-05T03:29:23.042Z,100227.88
2018-09-05T03:31:52.102Z,100217.47
2018-09-05T03:34:21.059Z,100222.01
2018-09-05T03:36:50.072Z,100226.44
2018-09-05T03:39:19.014Z,100232.54
2018-09-05T03:41:48.027Z,100229.98
2018-09-05T03:44:16.984Z,100231.10
2018-09-05T03:46:45.949Z,100231.25
2018-09-05T03:49:14.917Z,100235.84
2018-09-05T03:51:43.884Z,100236.84
2018-09-05T03:54:12.839Z,100232.80
2018-09-05T03:56:41.791Z,100238.31
2018-09-05T03:59:10.715Z,100246.23
2018-09-05T04:01:39.681Z,100241.45
2018-09-05T04:04:08.701Z,100251.23
2018-09-05T04:06:37.653Z,100249.03
2018-09-05T04:09:08.088Z,100254.93
2018-09-05T04:11:37.386Z,100248.80
2018-09-05T04:14:06.378Z,100249.27
2018-09-05T04:16:35.342Z,100254.48
2018-09-05T04:19:04.328Z,100257.36
2018-09-05T04:21:33.352Z,100256.57
2018-09-05T04:24:02.351Z,100262.67
2018-09-05T04:26:31.462Z,100254.72
2018-09-05T04:29:00.641Z,100256.69
2018-09-05T04:31:29.638Z,100258.03
2018-09-05T04:33:58.579Z,100262.87
2018-09-05T04:36:27.531Z,100263.58
2018-09-05T04:38:56.500Z,100271.67
2018-09-05T04:41:25.560Z,100271.85
2018-09-05T04:43:54.533Z,100276.31
2018-09-05T04:46:23.452Z,100273.77
2018-09-05T04:48:52.421Z,100271.02
2018-09-05T04:51:21.453Z,100273.59
2018-09-05T04:53:51.453Z,100277.85
2018-09-05T04:56:20.405Z,100278.82
2018-09-05T04:58:54.156Z,100274.66
2018-09-05T05:01:23.141Z,100282.48
2018-09-05T05:03:52.095Z,100280.58
2018-09-05T05:06:21.078Z,100280.23
2018-09-05T05:08:50.047Z,100281.14
2018-09-05T05:11:19.047Z,100280.55
2018-09-05T05:13:48.120Z,100285.01
2018-09-05T05:16:17.035Z,100287.13
2018-09-05T05:18:46.003Z,100292.58
2018-09-05T05:21:14.941Z,100295.60
2018-09-05T05:23:43.938Z,100294.31
2018-09-05T05:26:12.902Z,100299.33
2018-09-05T05:28:41.858Z,100304.72
2018-09-05T05:31:10.804Z,100311.27
2018-09-05T05:33:39.780Z,100313.20
2018-09-05T05:36:08.738Z,100312.84
2018-09-05T05:38:37.709Z,100313.05
2018-09-05T05:41:07.007Z,100312.20
2018-09-05T05:43:35.909Z,100311.52
2018-09-05T05:46:04.882Z,100308.27
2018-09-05T05:48:33.815Z,100307.91
2018-09-05T05:51:03.009Z,100307.91
2018-09-05T05:53:32.019Z,100311.89
2018-09-05T05:56:01.168Z,100316.18
2018-09-05T05:58:30.324Z,100320.51
2018-09-05T06:00:59.672Z,100314.85
2018-09-05T06:03:28.535Z,100315.64
2018-09-05T06:05:57.540Z,100317.12
2018-09-05T06:08:26.492Z,100315.64
2018-09-05T06:10:55.469Z,100319.25
2018-09-05T06:13:24.424Z,100316.25
2018-09-05T06:15:53.352Z,100321.70
2018-09-05T06:18:22.322Z,100312.53
2018-09-05T06:20:51.391Z,100316.95
2018-09-05T06:23:20.413Z,100314.96
2018-09-05T06:25:49.365Z,100312.62
2018-09-05T06:28:18.477Z,100312.95
2018-09-05T06:30:47.521Z,100310.16
2018-09-05T06:33:18.368Z,100315.98
2018-09-05T06:35:48.038Z,100315.37
2018-09-05T06:38:17.055Z,100318.65
2018-09-05T06:40:45.975Z,100316.17
2018-09-05T06:43:14.960Z,100314.27
2018-09-05T06:45:44.110Z,100311.30
2018-09-05T06:48:13.119Z,100316.56
2018-09-05T06:50:42.108Z,100314.75
2018-09-05T06:53:11.072Z,100315.30
2018-09-05T06:55:40.032Z,100311.95
2018-09-05T06:58:09.024Z,100313.97
2018-09-05T07:00:38.024Z,100311.57
2018-09-05T07:03:07.066Z,100315.05
2018-09-05T07:05:36.046Z,100312.88
2018-09-05T07:08:05.069Z,100314.38
2018-09-05T07:10:34.026Z,100310.64
2018-09-05T07:13:02.961Z,100305.26
2018-09-05T07:15:31.956Z,100309.20
2018-09-05T07:18:01.078Z,100303.70
2018-09-05T07:20:30.051Z,100309.03
2018-09-05T07:22:58.990Z,100300.89
2018-09-05T07:25:27.940Z,100307.95
2018-09-05T07:27:56.877Z,100311.16
2018-09-05T07:30:25.910Z,100315.06
2018-09-05T07:32:54.800Z,100318.03
2018-09-05T07:35:23.751Z,100311.30
2018-09-05T07:37:52.695Z,100314.48
2018-09-05T07:40:21.657Z,100307.80
2018-09-05T07:42:56.435Z,100309.45
2018-09-05T07:45:25.431Z,100314.27
2018-09-05T07:47:54.349Z,100304.73
2018-09-05T07:50:23.318Z,100301.80
2018-09-05T07:52:52.267Z,100313.50
2018-09-05T07:55:21.190Z,100302.89
2018-09-05T07:57:50.174Z,100303.64
2018-09-05T08:00:19.175Z,100310.20
2018-09-05T08:02:48.164Z,100312.16
2018-09-05T08:05:17.151Z,100311.05
2018-09-05T08:07:46.091Z,100307.73
2018-09-05T08:10:15.206Z,100303.80
2018-09-05T08:12:44.128Z,100310.75
2018-09-05T08:15:13.096Z,100311.47
2018-09-05T08:17:42.152Z,100312.59
2018-09-05T08:20:11.191Z,100314.14
2018-09-05T08:22:40.223Z,100315.57
2018-09-05T08:25:09.158Z,100315.34
2018-09-05T08:27:38.143Z,100307.11
2018-09-05T08:30:07.145Z,100309.12
2018-09-05T08:32:36.101Z,100314.16
2018-09-05T08:35:05.205Z,100310.29
2018-09-05T08:37:34.344Z,100311.93
2018-09-05T08:40:03.097Z,100300.97
2018-09-05T08:42:34.911Z,100305.41
2018-09-05T08:45:04.938Z,100303.76
2018-09-05T08:47:34.346Z,100311.59
2018-09-05T08:50:03.289Z,100310.38
2018-09-05T08:52:32.252Z,100314.50
2018-09-05T08:55:01.289Z,100313.73
2018-09-05T08:57:30.168Z,100311.45
2018-09-05T08:59:59.106Z,100302.97
2018-09-05T09:02:28.046Z,100299.95
2018-09-05T09:04:56.991Z,100296.34
2018-09-05T09:07:26.038Z,100294.42
2018-09-05T09:09:55.286Z,100286.11
2018-09-05T09:12:24.236Z,100285.49
2018-09-05T09:14:53.189Z,100287.98
2018-09-05T09:17:22.169Z,100291.61
2018-09-05T09:19:51.133Z,100291.61
2018-09-05T09:22:20.072Z,100284.81
2018-09-05T09:24:49.068Z,100286.81
2018-09-05T09:27:18.090Z,100289.55
2018-09-05T09:29:47.105Z,100286.06
2018-09-05T09:32:16.095Z,100284.62
2018-09-05T09:34:45.070Z,100286.17
2018-09-05T09:37:14.030Z,100274.02
2018-09-05T09:39:43.327Z,100275.39
2018-09-05T09:42:12.284Z,100278.94
2018-09-05T09:44:41.211Z,100275.92
2018-09-05T09:47:10.170Z,100276.28
2018-09-05T09:49:39.173Z,100271.13
2018-09-05T09:52:13.559Z,100268.30
2018-09-05T09:54:42.498Z,100265.95
2018-09-05T09:57:11.569Z,100258.67
2018-09-05T09:59:40.571Z,100259.48
2018-09-05T10:02:15.201Z,100258.05
2018-09-05T10:04:49.499Z,100261.41
2018-09-05T10:07:23.771Z,100255.30
2018-09-05T10:09:54.813Z,100249.55
2018-09-05T10:12:28.975Z,100245.06
2018-09-05T10:15:02.621Z,100243.44
2018-09-05T10:17:34.074Z,100250.23
2018-09-05T10:20:03.273Z,100246.58
2018-09-05T10:22:32.749Z,100240.76
2018-09-05T10:25:01.741Z,100240.98
2018-09-05T10:27:30.754Z,100233.65
2018-09-05T10:29:59.733Z,100230.06
2018-09-05T10:32:28.673Z,100225.57
2018-09-05T10:34:57.606Z,100221.91
2018-09-05T10:37:26.534Z,100223.34
2018-09-05T10:39:55.476Z,100224.02
2018-09-05T10:42:24.442Z,100217.44
2018-09-05T10:44:53.479Z,100214.06
2018-09-05T10:47:22.401Z,100214.73
2018-09-05T10:49:51.347Z,100212.97
2018-09-05T10:52:20.272Z,100207.61
2018-09-05T10:54:49.205Z,100210.02
2018-09-05T10:57:18.120Z,100203.41
2018-09-05T10:59:47.051Z,100204.66
2018-09-05T11:02:16.020Z,100200.16
2018-09-05T11:04:44.924Z,100195.97
2018-09-05T11:07:14.505Z,100201.34
2018-09-05T11:09:43.452Z,100200.80
2018-09-05T11:12:12.383Z,100202.39
2018-09-05T11:14:41.582Z,100204.72
2018-09-05T11:17:10.514Z,100200.81
2018-09-05T11:19:39.484Z,100200.92
2018-09-05T11:22:08.461Z,100201.06
2018-09-05T11:24:37.410Z,100202.77
2018-09-05T11:27:06.412Z,100209.41
2018-09-05T11:29:35.361Z,100207.22
2018-09-05T11:32:04.296Z,100206.23
2018-09-05T11:34:33.237Z,100203.18
2018-09-05T11:37:02.215Z,100195.47
2018-09-05T11:39:31.123Z,100191.91
2018-09-05T11:42:00.090Z,100188.25
2018-09-05T11:44:29.027Z,100179.58
2018-09-05T11:46:57.971Z,100177.14
2018-09-05T11:49:26.924Z,100173.49
2018-09-05T11:51:55.863Z,100170.50
2018-09-05T11:54:24.794Z,100179.85
2018-09-05T11:56:53.726Z,100169.69
2018-09-05T11:59:22.647Z,100175.97
2018-09-05T12:01:51.557Z,100168.63
2018-09-05T12:04:20.520Z,100176.63
2018-09-05T12:06:49.468Z,100178.89
2018-09-05T12:09:19.076Z,100173.23
2018-09-05T12:11:48.145Z,100177.58
2018-09-05T12:14:17.008Z,100183.66
2018-09-05T12:16:45.937Z,100175.89
2018-09-05T12:19:14.906Z,100166.81
2018-09-05T12:21:43.845Z,100162.84
2018-09-05T12:24:12.772Z,100161.45
2018-09-05T12:26:41.725Z,100162.17
2018-09-05T12:29:11.883Z,100159.46
2018-09-05T12:31:41.572Z,100156.36
2018-09-05T12:34:10.892Z,100155.90
2018-09-05T12:36:39.895Z,100143.77
2018-09-05T12:39:11.337Z,100142.84
2018-09-05T12:41:40.548Z,100137.19
2018-09-05T12:44:09.696Z,100137.05
2018-09-05T12:46:38.932Z,100132.77
2018-09-05T12:49:07.881Z,100134.69
2018-09-05T12:51:37.019Z,100135.94
2018-09-05T12:54:06.421Z,100134.63
2018-09-05T12:56:35.361Z,100130.38
2018-09-05T12:59:04.284Z,100127.53
2018-09-05T13:01:33.222Z,100133.20
2018-09-05T13:04:02.425Z,100129.77
2018-09-05T13:06:31.398Z,100128.25
2018-09-05T13:09:00.359Z,100121.03
2018-09-05T13:11:29.490Z,100117.23
2018-09-05T13:13:58.410Z,100116.02
2018-09-05T13:16:27.368Z,100110.89
2018-09-05T13:18:56.329Z,100113.21
2018-09-05T13:21:25.251Z,100113.62
2018-09-05T13:23:54.184Z,100116.19
2018-09-05T13:26:23.106Z,100117.09
2018-09-05T13:28:52.045Z,100118.00
2018-09-05T13:31:20.988Z,100110.39
2018-09-05T13:33:49.903Z,100113.07
2018-09-05T13:36:18.850Z,100106.83
2018-09-05T13:38:47.785Z,100107.20
2018-09-05T13:41:16.842Z,100103.30
2018-09-05T13:43:45.776Z,100106.22
2018-09-05T13:46:14.713Z,100109.95
2018-09-05T13:48:43.641Z,100105.45
2018-09-05T13:51:12.612Z,100104.27
2018-09-05T13:53:41.550Z,100105.13
2018-09-05T13:56:10.656Z,100100.95
2018-09-05T13:58:39.608Z,100105.02
2018-09-05T14:01:08.538Z,100099.16
2018-09-05T14:03:37.471Z,100103.84
2018-09-05T14:06:06.433Z,100099.19
2018-09-05T14:08:35.410Z,100095.84
2018-09-05T14:11:04.339Z,100101.33
2018-09-05T14:13:33.441Z,100096.22
2018-09-05T14:16:02.338Z,100093.41
2018-09-05T14:18:31.253Z,100095.92
2018-09-05T14:21:00.198Z,100091.93
2018-09-05T14:23:29.282Z,100089.38
2018-09-05T14:25:58.248Z,100094.34
2018-09-05T14:28:27.211Z,100095.49
2018-09-05T14:30:56.477Z,100084.63
2018-09-05T14:33:25.443Z,100092.20
2018-09-05T14:35:54.784Z,100095.56
2018-09-05T14:38:23.728Z,100094.20
2018-09-05T14:40:52.666Z,100090.35
2018-09-05T14:43:22.188Z,100089.36
2018-09-05T14:45:51.156Z,100100.69
2018-09-05T14:48:20.180Z,100099.27
2018-09-05T14:50:49.320Z,100096.44
2018-09-05T14:53:18.252Z,100098.46
2018-09-05T14:55:47.273Z,100097.48
2018-09-05T14:58:16.258Z,100096.74
2018-09-05T15:00:45.202Z,100096.06
2018-09-05T15:03:14.165Z,100099.20
2018-09-05T15:05:43.083Z,100097.03
2018-09-05T15:08:12.123Z,100095.28
2018-09-05T15:10:41.091Z,100097.82
2018-09-05T15:13:10.021Z,100092.58
2018-09-05T15:15:39.019Z,100095.84
2018-09-05T15:18:07.936Z,100091.83
2018-09-05T15:20:36.973Z,100088.17
2018-09-05T15:23:06.353Z,100082.80
2018-09-05T15:25:35.490Z,100085.55
2018-09-05T15:28:04.412Z,100087.89
2018-09-05T15:30:33.333Z,100084.75
2018-09-05T15:33:02.321Z,100074.75
2018-09-05T15:35:31.296Z,100069.89
2018-09-05T15:38:00.270Z,100074.39
2018-09-05T15:40:29.366Z,100078.38
2018-09-05T15:42:58.416Z,100069.28
2018-09-05T15:45:28.252Z,100070.71
2018-09-05T15:47:57.213Z,100071.69
2018-09-05T15:50:26.154Z,100067.08
2018-09-05T15:52:55.097Z,100067.02
2018-09-05T15:55:24.414Z,100065.19
2018-09-05T15:57:53.352Z,100062.56
2018-09-05T16:00:22.304Z,100052.42
2018-09-05T16:02:51.352Z,100059.44
2018-09-05T16:05:20.280Z,100063.50
2018-09-05T16:07:49.318Z,100059.81
2018-09-05T16:10:18.316Z,100053.66
2018-09-05T16:12:47.173Z,100052.69
2018-09-05T16:15:16.280Z,100058.88
2018-09-05T16:17:45.165Z,100066.09
2018-09-05T16:20:14.131Z,100060.80
2018-09-05T16:22:43.147Z,100057.16
2018-09-05T16:25:12.240Z,100059.89
2018-09-05T16:27:41.186Z,100055.87
2018-09-05T16:30:10.162Z,100057.05
2018-09-05T16:32:39.109Z,100061.52
2018-09-05T16:35:08.042Z,100058.63
2018-09-05T16:37:36.957Z,100059.14
2018-09-05T16:40:06.019Z,100061.54
2018-09-05T16:42:34.944Z,100058.22
2018-09-05T16:45:03.907Z,100065.09
2018-09-05T16:47:32.913Z,100060.19
2018-09-05T16:50:01.904Z,100068.80
2018-09-05T16:52:31.172Z,100064.67
2018-09-05T16:55:00.352Z,100072.50
2018-09-05T16:57:29.284Z,100072.20
2018-09-05T16:59:58.224Z,100077.24
2018-09-05T17:02:27.201Z,100080.08
2018-09-05T17:04:56.217Z,100076.01
2018-09-05T17:07:25.208Z,100076.78
2018-09-05T17:09:54.257Z,100071.61
2018-09-05T17:12:23.142Z,100066.99
2018-09-05T17:14:52.195Z,100073.11
2018-09-05T17:17:21.108Z,100074.34
2018-09-05T17:19:50.085Z,100075.23
2018-09-05T17:22:19.025Z,100076.39
2018-09-05T17:24:48.037Z,100079.96
2018-09-05T17:27:17.107Z,100078.13
2018-09-05T17:29:46.045Z,100079.92
2018-09-05T17:32:15.022Z,100078.24
2018-09-05T17:34:44.041Z,100075.25
2018-09-05T17:37:13.043Z,100076.96
2018-09-05T17:39:42.140Z,100077.06
2018-09-05T17:42:10.755Z,100082.08
2018-09-05T17:44:39.424Z,100078.44
2018-09-05T17:47:08.377Z,100084.95
2018-09-05T17:49:37.367Z,100089.32
2018-09-05T17:52:06.318Z,100092.80
2018-09-05T17:54:35.272Z,100088.34
2018-09-05T17:57:04.346Z,100092.45
2018-09-05T17:59:33.343Z,100089.80
2018-09-05T18:02:02.377Z,100092.05
2018-09-05T18:04:31.376Z,100092.13
2018-09-05T18:07:00.354Z,100098.37
2018-09-05T18:09:29.320Z,100095.06
2018-09-05T18:11:58.351Z,100098.52
2018-09-05T18:14:27.313Z,100096.98
2018-09-05T18:16:56.334Z,100092.02
2018-09-05T18:19:25.313Z,100093.46
2018-09-05T18:21:54.331Z,100098.20
2018-09-05T18:24:23.359Z,100096.48
2018-09-05T18:26:52.200Z,100097.31
2018-09-05T18:29:21.315Z,100103.56
2018-09-05T18:31:50.348Z,100099.59
2018-09-05T18:34:19.316Z,100104.27
2018-09-05T18:36:48.295Z,100104.45
2018-09-05T18:39:17.217Z,100102.48
2018-09-05T18:41:46.168Z,100102.90
2018-09-05T18:44:15.122Z,100098.36
2018-09-05T18:46:44.107Z,100103.34
2018-09-05T18:49:13.090Z,100099.19
2018-09-05T18:51:41.969Z,100103.69
2018-09-05T18:54:10.989Z,100108.97
2018-09-05T18:56:39.933Z,100104.30
2018-09-05T18:59:08.991Z,100106.09
2018-09-05T19:01:38.065Z,100107.24
2018-09-05T19:04:07.265Z,100106.35
2018-09-05T19:06:36.254Z,100107.53
2018-09-05T19:09:08.887Z,100104.70
2018-09-05T19:11:38.055Z,100102.36
2018-09-05T19:14:07.170Z,100098.98
2018-09-05T19:16:36.105Z,100095.50
2018-09-05T19:19:05.164Z,100095.41
2018-09-05T19:21:34.130Z,100093.86
2018-09-05T19:24:04.957Z,100096.60
2018-09-05T19:26:34.013Z,100101.57
2018-09-05T19:29:03.176Z,100095.92
2018-09-05T19:31:32.101Z,100095.92
2018-09-05T19:34:01.105Z,100096.71
2018-09-05T19:36:30.127Z,100096.59
2018-09-05T19:38:59.130Z,100091.63
2018-09-05T19:41:28.052Z,100089.58
2018-09-05T19:43:57.132Z,100086.65
2018-09-05T19:46:26.119Z,100087.61
2018-09-05T19:48:55.093Z,100089.09
2018-09-05T19:51:24.069Z,100091.05
2018-09-05T19:53:53.074Z,100094.05
2018-09-05T19:56:22.266Z,100094.95
2018-09-05T19:58:51.225Z,100096.22
2018-09-05T20:01:20.269Z,100097.48
2018-09-05T20:03:49.313Z,100099.08
2018-09-05T20:06:18.339Z,100095.74
2018-09-05T20:08:47.509Z,100099.02
2018-09-05T20:11:16.481Z,100102.22
2018-09-05T20:13:45.451Z,100102.31
2018-09-05T20:16:15.408Z,100101.19
2018-09-05T20:18:44.391Z,100104.14
2018-09-05T20:21:13.352Z,100101.66
2018-09-05T20:23:42.289Z,100109.23
2018-09-05T20:26:11.414Z,100107.35
2018-09-05T20:28:40.532Z,100113.82
2018-09-05T20:31:09.532Z,100111.52
2018-09-05T20:33:38.580Z,100109.62
2018-09-05T20:36:07.550Z,100107.70
2018-09-05T20:38:36.554Z,100106.98
2018-09-05T20:41:05.510Z,100108.13
2018-09-05T20:43:34.450Z,100105.84
2018-09-05T20:46:03.464Z,100105.94
2018-09-05T20:48:32.487Z,100105.16
2018-09-05T20:51:01.450Z,100100.27
2018-09-05T20:53:30.370Z,100109.19
2018-09-05T20:55:59.378Z,100104.19
2018-09-05T20:58:28.602Z,100104.81
2018-09-05T21:00:57.872Z,100100.84
2018-09-05T21:03:26.825Z,100106.70
2018-09-05T21:05:55.893Z,100105.27
2018-09-05T21:08:24.864Z,100107.42
2018-09-05T21:10:53.802Z,100103.85
2018-09-05T21:13:22.825Z,100105.72
2018-09-05T21:15:51.838Z,100111.56
2018-09-05T21:18:20.794Z,100111.15
2018-09-05T21:20:50.365Z,100110.31
2018-09-05T21:23:19.279Z,100109.00
2018-09-05T21:25:48.193Z,100105.72
2018-09-05T21:28:17.139Z,100106.61
2018-09-05T21:30:46.134Z,100103.06
2018-09-05T21:33:15.066Z,100101.38
2018-09-05T21:35:44.058Z,100104.01
2018-09-05T21:38:12.994Z,100107.47
2018-09-05T21:40:41.980Z,100103.61
2018-09-05T21:43:10.950Z,100101.81
2018-09-05T21:45:39.889Z,100102.98
2018-09-05T21:48:08.819Z,100101.63
2018-09-05T21:50:37.925Z,100105.63
2018-09-05T21:53:06.903Z,100101.78
2018-09-05T21:55:35.910Z,100108.09
2018-09-05T21:58:04.794Z,100101.22
2018-09-05T22:00:33.699Z,100108.97
2018-09-05T22:03:02.624Z,100105.95
2018-09-05T22:05:31.595Z,100108.50
2018-09-05T22:08:00.524Z,100106.64
2018-09-05T22:10:29.465Z,100104.63
2018-09-05T22:12:58.478Z,100105.41
2018-09-05T22:15:30.847Z,100102.38
2018-09-05T22:17:59.773Z,100103.70
2018-09-05T22:20:28.741Z,100106.64
2018-09-05T22:22:57.703Z,100101.06
2018-09-05T22:25:26.625Z,100101.81
2018-09-05T22:27:55.517Z,100103.27
2018-09-05T22:30:24.409Z,100104.63
2018-09-05T22:32:53.362Z,100102.23
2018-09-05T22:35:22.279Z,100108.21
2018-09-05T22:37:51.221Z,100106.38
2018-09-05T22:40:20.241Z,100108.62
2018-09-05T22:43:00.522Z,100106.88
2018-09-05T22:45:40.966Z,100101.55
2018-09-05T22:48:29.230Z,100102.80
2018-09-05T22:51:13.698Z,100099.39
2018-09-05T22:53:59.046Z,100101.41
2018-09-05T22:57:58.369Z,100101.73
2018-09-05T23:00:41.300Z,100095.54
2018-09-05T23:03:27.137Z,100092.05
2018-09-05T23:08:11.450Z,100093.72
2018-09-05T23:10:51.809Z,100091.58
2018-09-05T23:13:34.014Z,100083.16
2018-09-05T23:16:16.303Z,100084.81
2018-09-05T23:19:25.878Z,100082.93
2018-09-05T23:21:54.825Z,100080.05
2018-09-05T23:24:24.857Z,100074.98
2018-09-05T23:27:00.539Z,100074.41
2018-09-05T23:29:29.466Z,100075.06
2018-09-05T23:31:58.490Z,100076.50
2018-09-05T23:34:27.482Z,100077.76
2018-09-05T23:36:56.474Z,100071.39
2018-09-05T23:39:25.388Z,100076.09
2018-09-05T23:41:54.310Z,100073.95
2018-09-05T23:44:23.242Z,100072.59
2018-09-05T23:46:52.244Z,100069.41
2018-09-05T23:49:21.154Z,100068.84
2018-09-05T23:51:50.084Z,100074.50
2018-09-05T23:54:18.981Z,100069.09
2018-09-05T23:56:47.935Z,100070.04
2018-09-05T23:59:16.930Z,100076.02
